Terminal Aerodrome Forecast
Issued by NWS

Home | Current Version | Previous Version | Text Only | Print | Product List | Glossary On
Versions: 1 2 3 4 5 6 7 8 9 10 11 12 13 14 15 16 17 18 19 20 21 22 23 24 25 26 27 28 29 30 31 32
100
FTUS41 KCAR 270527
TAFFVE
TAF
KFVE 270527Z 2706/2806 24005KT P6SM SCT150
     FM271100 22007KT P6SM BKN050 WS020/23035KT
     FM271400 22009KT P6SM BKN030
     FM271600 25015G26KT P6SM VCSH BKN040
     FM272100 28014G23KT 6SM -SHSN BKN035
     FM280000 30008KT P6SM SCT030=

USA.gov is the U.S. government's official web portal to all federal, state and local government web resources and services.